createdAt,value
2022-11-18T00:00:32.798Z,82.32
2022-11-18T00:05:39.470Z,82.22
2022-11-18T00:10:45.135Z,82.02
2022-11-18T00:15:59.552Z,82.19
2022-11-18T00:21:07.868Z,82.16
2022-11-18T00:26:14.695Z,82.06
2022-11-18T00:31:20.287Z,82.15
2022-11-18T00:36:26.045Z,82.14
2022-11-18T00:41:50.798Z,82.39
2022-11-18T00:46:56.805Z,82.20
2022-11-18T00:52:02.784Z,81.91
2022-11-18T00:57:08.739Z,81.83
2022-11-18T01:02:14.486Z,81.67
2022-11-18T01:07:20.221Z,81.82
2022-11-18T01:12:46.297Z,81.76
2022-11-18T01:17:53.635Z,81.98
2022-11-18T01:22:59.431Z,82.27
2022-11-18T01:28:05.198Z,82.43
2022-11-18T01:33:12.115Z,82.34
2022-11-18T01:38:17.692Z,82.33
2022-11-18T01:43:24.346Z,82.34
2022-11-18T01:48:34.330Z,82.27
2022-11-18T01:53:45.443Z,82.19
2022-11-18T01:58:55.602Z,82.33
2022-11-18T02:04:01.490Z,82.28
2022-11-18T02:09:07.577Z,82.37
2022-11-18T02:14:13.606Z,82.50
2022-11-18T02:19:38.742Z,82.52
2022-11-18T02:24:56.487Z,82.56
2022-11-18T02:30:05.905Z,82.84
2022-11-18T02:35:18.781Z,83.10
2022-11-18T02:40:29.309Z,83.22
2022-11-18T02:45:37.314Z,83.18
2022-11-18T02:50:44.972Z,83.25
2022-11-18T02:55:53.238Z,83.36
2022-11-18T03:01:01.489Z,83.41
2022-11-18T03:06:19.917Z,83.63
2022-11-18T03:11:28.383Z,83.86
2022-11-18T03:16:38.317Z,84.23
2022-11-18T03:21:51.643Z,84.36
2022-11-18T03:27:04.899Z,84.26
2022-11-18T03:32:17.782Z,84.23
2022-11-18T03:37:26.302Z,84.44
2022-11-18T03:42:36.367Z,84.61
2022-11-18T03:47:45.482Z,84.82
2022-11-18T03:52:53.397Z,85.07
2022-11-18T03:58:06.036Z,85.31
2022-11-18T04:03:13.070Z,85.43
2022-11-18T04:08:27.485Z,85.77
2022-11-18T04:13:36.716Z,86.08
2022-11-18T04:18:42.707Z,86.43
2022-11-18T04:23:48.501Z,86.98
2022-11-18T04:28:54.403Z,87.43
2022-11-18T04:34:00.354Z,87.66
2022-11-18T04:39:07.272Z,87.80
2022-11-18T04:44:13.551Z,88.13
2022-11-18T04:49:19.665Z,88.61
2022-11-18T04:54:26.911Z,88.96
2022-11-18T04:59:32.727Z,89.48
2022-11-18T05:04:38.514Z,89.64
2022-11-18T05:09:44.415Z,89.78
2022-11-18T05:14:51.120Z,89.93
2022-11-18T05:19:56.998Z,90.12
2022-11-18T05:25:02.694Z,89.97
2022-11-18T05:30:10.319Z,89.96
2022-11-18T05:35:16.282Z,89.23
2022-11-18T05:40:22.023Z,88.66
2022-11-18T05:45:27.640Z,88.75
2022-11-18T05:50:35.278Z,88.82
2022-11-18T05:55:44.416Z,89.07
2022-11-18T06:00:53.739Z,89.15
2022-11-18T06:06:03.363Z,88.98
2022-11-18T06:11:14.822Z,88.76
2022-11-18T06:16:23.709Z,88.76
2022-11-18T06:21:29.978Z,88.66
2022-11-18T06:26:36.035Z,88.83
2022-11-18T06:31:41.978Z,88.68
2022-11-18T06:36:47.771Z,88.59
2022-11-18T06:41:55.211Z,88.41
2022-11-18T06:47:02.526Z,88.27
2022-11-18T06:52:08.326Z,88.20
2022-11-18T06:57:14.234Z,88.31
2022-11-18T07:02:19.921Z,88.22
2022-11-18T07:07:25.781Z,88.09
2022-11-18T07:12:31.799Z,87.82
2022-11-18T07:17:37.643Z,87.28
2022-11-18T07:22:43.354Z,86.68
2022-11-18T07:27:48.955Z,86.44
2022-11-18T07:32:54.779Z,85.93
2022-11-18T07:38:00.540Z,85.16
2022-11-18T07:43:07.278Z,85.10
2022-11-18T07:48:13.582Z,84.43
2022-11-18T07:53:19.254Z,83.81
2022-11-18T07:58:25.186Z,83.83
2022-11-18T08:03:30.783Z,83.20
2022-11-18T08:08:37.130Z,83.01
2022-11-18T08:13:42.920Z,82.56
2022-11-18T08:18:48.946Z,82.17
2022-11-18T08:23:56.397Z,82.72
2022-11-18T08:29:02.226Z,82.21
2022-11-18T08:34:08.935Z,80.72
2022-11-18T08:39:15.197Z,80.99
2022-11-18T08:44:20.975Z,80.90
2022-11-18T08:49:32.189Z,80.57
2022-11-18T08:54:38.523Z,80.01
2022-11-18T08:59:44.423Z,79.69
2022-11-18T09:04:50.884Z,79.63
2022-11-18T09:09:56.533Z,79.83
2022-11-18T09:15:18.380Z,79.32
2022-11-18T09:20:24.653Z,78.39
2022-11-18T09:25:30.302Z,78.75
2022-11-18T09:30:36.095Z,78.34
2022-11-18T09:35:45.184Z,78.12
2022-11-18T09:41:04.551Z,77.91
2022-11-18T09:46:21.991Z,77.61
2022-11-18T09:51:35.188Z,77.49
2022-11-18T09:56:41.785Z,77.88
2022-11-18T10:01:48.899Z,77.70
2022-11-18T10:06:55.194Z,77.20
2022-11-18T10:12:16.570Z,76.77
2022-11-18T10:17:33.196Z,76.82
2022-11-18T10:22:44.426Z,76.77
2022-11-18T10:27:51.682Z,77.01
2022-11-18T10:32:59.890Z,76.47
2022-11-18T10:38:16.784Z,76.06
2022-11-18T10:43:45.327Z,75.55
2022-11-18T10:49:14.210Z,75.56
2022-11-18T10:54:22.622Z,75.60
2022-11-18T10:59:33.701Z,75.50
2022-11-18T11:04:40.883Z,75.56
2022-11-18T11:09:58.767Z,75.44
2022-11-18T11:15:09.189Z,74.99
2022-11-18T11:20:19.260Z,74.65
2022-11-18T11:31:13.154Z,75.24
2022-11-18T11:37:32.494Z,75.93
2022-11-18T11:42:50.663Z,75.68
2022-11-18T11:48:24.502Z,75.02
2022-11-18T11:53:54.873Z,74.02
2022-11-18T11:59:19.301Z,73.95
2022-11-18T12:04:39.736Z,73.33
2022-11-18T12:09:58.712Z,72.52
2022-11-18T12:15:16.824Z,72.37
2022-11-18T12:20:45.169Z,72.06
2022-11-18T12:26:04.198Z,72.67
2022-11-18T12:31:31.958Z,72.62
2022-11-18T12:36:39.515Z,73.38
2022-11-18T12:42:17.941Z,73.86
2022-11-18T12:47:54.669Z,74.08
2022-11-18T12:53:00.311Z,74.19
2022-11-18T12:58:24.212Z,73.88
2022-11-18T13:03:30.577Z,74.47
2022-11-18T13:08:37.037Z,74.32
2022-11-18T13:13:44.177Z,74.44
2022-11-18T13:18:52.080Z,74.64
2022-11-18T13:24:02.597Z,74.66
2022-11-18T13:29:27.067Z,75.16
2022-11-18T13:34:47.095Z,75.61
2022-11-18T13:39:53.593Z,76.26
2022-11-18T13:45:00.628Z,76.64
2022-11-18T13:50:16.859Z,76.70
2022-11-18T13:55:25.159Z,77.19
2022-11-18T14:00:34.657Z,77.79
2022-11-18T14:05:41.653Z,78.52
2022-11-18T14:10:47.522Z,78.95
2022-11-18T14:15:54.614Z,79.47
2022-11-18T14:21:01.684Z,80.07
2022-11-18T14:26:08.167Z,80.40
2022-11-18T14:31:26.144Z,80.71
2022-11-18T14:36:32.151Z,81.18
2022-11-18T14:41:47.226Z,81.85
2022-11-18T14:46:57.216Z,82.65
2022-11-18T14:52:04.623Z,83.33
2022-11-18T14:57:17.165Z,83.86
2022-11-18T15:02:23.036Z,84.23
2022-11-18T15:07:30.218Z,84.39
2022-11-18T15:12:37.592Z,84.86
2022-11-18T15:17:43.903Z,85.03
2022-11-18T15:22:49.816Z,85.19
2022-11-18T15:27:55.402Z,84.88
2022-11-18T15:33:01.025Z,85.01
2022-11-18T15:38:06.797Z,84.91
2022-11-18T15:43:12.462Z,85.13
2022-11-18T15:48:18.244Z,85.26
2022-11-18T15:53:23.945Z,85.02
2022-11-18T15:58:34.534Z,84.93
2022-11-18T16:03:41.883Z,84.84
2022-11-18T16:08:47.844Z,85.06
2022-11-18T16:13:53.568Z,85.08
2022-11-18T16:19:01.308Z,85.27
2022-11-18T16:24:10.738Z,85.24
2022-11-18T16:29:18.552Z,85.34
2022-11-18T16:34:27.121Z,85.41
2022-11-18T16:39:32.949Z,85.42
2022-11-18T16:44:38.840Z,85.29
2022-11-18T16:49:44.932Z,85.49
2022-11-18T16:54:51.272Z,85.53
2022-11-18T16:59:57.073Z,85.46
2022-11-18T17:05:02.972Z,85.41
2022-11-18T17:10:20.219Z,85.15
2022-11-18T17:15:25.992Z,85.01
2022-11-18T17:20:31.796Z,84.92
2022-11-18T17:25:39.851Z,84.75
2022-11-18T17:30:49.910Z,84.75
2022-11-18T17:36:03.867Z,84.87
2022-11-18T17:41:31.372Z,84.76
2022-11-18T17:46:38.419Z,84.62
2022-11-18T17:51:46.209Z,84.48
2022-11-18T17:56:52.566Z,83.87
2022-11-18T18:01:59.909Z,83.80
2022-11-18T18:07:06.605Z,83.35
2022-11-18T18:12:30.881Z,83.27
2022-11-18T18:17:37.268Z,83.31
2022-11-18T18:22:43.022Z,83.18
2022-11-18T18:27:49.000Z,83.25
2022-11-18T18:32:54.648Z,82.82
2022-11-18T18:38:01.385Z,82.53
2022-11-18T18:43:06.983Z,82.39
2022-11-18T18:48:12.632Z,82.24
2022-11-18T18:53:18.581Z,82.31
2022-11-18T18:58:24.185Z,82.00
2022-11-18T19:03:30.043Z,81.75
2022-11-18T19:08:35.776Z,81.86
2022-11-18T19:13:41.769Z,81.53
2022-11-18T19:18:47.833Z,81.47
2022-11-18T19:23:55.405Z,81.27
2022-11-18T19:29:01.377Z,81.29
2022-11-18T19:34:07.210Z,81.38
2022-11-18T19:39:13.077Z,81.45
2022-11-18T19:44:19.088Z,81.61
2022-11-18T19:49:24.750Z,81.55
2022-11-18T19:54:30.787Z,81.66
2022-11-18T19:59:36.438Z,81.60
2022-11-18T20:05:02.015Z,81.45
2022-11-18T20:10:09.972Z,81.69
2022-11-18T20:15:15.817Z,81.42
2022-11-18T20:20:22.096Z,81.28
2022-11-18T20:25:27.980Z,81.25
2022-11-18T20:30:33.701Z,80.96
2022-11-18T20:35:39.313Z,80.61
2022-11-18T20:40:45.195Z,80.34
2022-11-18T20:45:57.729Z,80.36
2022-11-18T20:51:06.613Z,80.32
2022-11-18T20:56:14.140Z,80.41
2022-11-18T21:01:21.901Z,80.42
2022-11-18T21:06:29.526Z,80.43
2022-11-18T21:11:36.942Z,80.72
2022-11-18T21:16:43.393Z,80.81
2022-11-18T21:21:50.962Z,80.96
2022-11-18T21:26:57.949Z,81.04
2022-11-18T21:32:03.911Z,80.95
2022-11-18T21:37:09.668Z,81.06
2022-11-18T21:42:15.274Z,81.09
2022-11-18T21:47:20.892Z,81.00
2022-11-18T21:52:26.816Z,81.23
2022-11-18T21:57:32.501Z,81.39
2022-11-18T22:02:38.639Z,81.26
2022-11-18T22:07:44.257Z,81.24
2022-11-18T22:12:51.564Z,81.41
2022-11-18T22:17:58.113Z,81.17
2022-11-18T22:23:05.045Z,81.31
2022-11-18T22:28:11.077Z,81.41
2022-11-18T22:33:16.853Z,81.35
2022-11-18T22:38:22.480Z,81.33
2022-11-18T22:43:28.969Z,81.50
2022-11-18T22:48:35.296Z,81.17
2022-11-18T22:53:41.049Z,81.01
2022-11-18T22:58:46.892Z,81.05
2022-11-18T23:03:54.124Z,81.06
2022-11-18T23:08:59.920Z,81.16
2022-11-18T23:14:07.947Z,81.25
2022-11-18T23:19:15.520Z,81.44
2022-11-18T23:24:21.233Z,81.61
2022-11-18T23:29:26.893Z,81.54
2022-11-18T23:34:33.080Z,81.25
2022-11-18T23:39:39.138Z,81.35
2022-11-18T23:44:50.087Z,81.35
2022-11-18T23:49:55.793Z,81.20
2022-11-18T23:55:01.624Z,81.11
